createdAt,value
2019-03-15T00:00:04.070Z,17.00
2019-03-15T00:01:04.063Z,18.20
2019-03-15T00:02:04.053Z,11.40
2019-03-15T00:03:04.042Z,14.40
2019-03-15T00:04:04.032Z,13.00
2019-03-15T00:05:04.020Z,17.60
2019-03-15T00:06:04.014Z,15.90
2019-03-15T00:07:04.008Z,16.80
2019-03-15T00:08:03.994Z,18.70
2019-03-15T00:09:03.981Z,14.10
2019-03-15T00:10:03.969Z,13.50
2019-03-15T00:11:04.354Z,17.20
2019-03-15T00:12:03.956Z,16.50
2019-03-15T00:13:03.946Z,17.00
2019-03-15T00:14:03.939Z,18.90
2019-03-15T00:15:03.930Z,16.20
2019-03-15T00:16:03.918Z,17.10
2019-03-15T00:17:03.905Z,16.80
2019-03-15T00:18:03.894Z,13.90
2019-03-15T00:19:03.923Z,18.70
2019-03-15T00:20:03.883Z,20.20
2019-03-15T00:21:03.868Z,21.60
2019-03-15T00:22:03.854Z,15.20
2019-03-15T00:23:03.847Z,18.60
2019-03-15T00:24:03.842Z,13.30
2019-03-15T00:25:03.833Z,16.90
2019-03-15T00:26:03.825Z,14.40
2019-03-15T00:27:03.814Z,16.50
2019-03-15T00:28:03.802Z,14.00
2019-03-15T00:29:03.791Z,17.10
2019-03-15T00:30:03.784Z,16.80
2019-03-15T00:31:03.773Z,17.80
2019-03-15T00:32:04.717Z,15.00
2019-03-15T00:33:03.758Z,17.20
2019-03-15T00:34:03.747Z,17.20
2019-03-15T00:35:03.741Z,18.00
2019-03-15T00:36:03.726Z,15.70
2019-03-15T00:37:03.715Z,15.30
2019-03-15T00:38:03.709Z,15.90
2019-03-15T00:39:03.700Z,17.70
2019-03-15T00:40:03.685Z,16.70
2019-03-15T00:41:03.677Z,21.40
2019-03-15T00:42:03.673Z,15.80
2019-03-15T00:43:03.660Z,17.80
2019-03-15T00:44:03.656Z,18.10
2019-03-15T00:45:03.651Z,14.50
2019-03-15T00:46:03.637Z,17.70
2019-03-15T00:47:03.626Z,20.40
2019-03-15T00:48:03.675Z,20.90
2019-03-15T00:49:03.603Z,23.00
2019-03-15T00:50:03.592Z,17.00
2019-03-15T00:51:03.583Z,15.50
2019-03-15T00:52:03.584Z,15.80
2019-03-15T00:53:03.600Z,16.10
2019-03-15T00:54:03.555Z,14.30
2019-03-15T00:55:03.546Z,17.70
2019-03-15T00:56:03.541Z,15.50
2019-03-15T00:57:03.531Z,23.40
2019-03-15T00:58:03.524Z,22.00
2019-03-15T00:59:03.517Z,14.40
2019-03-15T01:00:03.502Z,16.20
2019-03-15T01:01:03.536Z,19.50
2019-03-15T01:02:03.482Z,18.30
2019-03-15T01:03:03.480Z,16.70
2019-03-15T01:04:03.497Z,17.40
2019-03-15T01:05:03.459Z,16.10
2019-03-15T01:06:03.448Z,17.60
2019-03-15T01:07:03.438Z,19.70
2019-03-15T01:08:03.426Z,15.00
2019-03-15T01:09:03.420Z,16.90
2019-03-15T01:10:03.410Z,18.30
2019-03-15T01:11:03.402Z,24.80
2019-03-15T01:12:03.388Z,21.90
2019-03-15T01:13:03.377Z,19.50
2019-03-15T01:14:03.372Z,19.30
2019-03-15T01:15:03.361Z,16.00
2019-03-15T01:16:03.358Z,11.00
2019-03-15T01:17:03.347Z,8.80
2019-03-15T01:18:03.340Z,18.00
2019-03-15T01:19:03.325Z,11.40
2019-03-15T01:20:03.374Z,16.80
2019-03-15T01:21:03.302Z,14.40
2019-03-15T01:22:03.300Z,16.80
2019-03-15T01:23:03.287Z,15.50
2019-03-15T01:24:03.283Z,14.10
2019-03-15T01:25:03.272Z,16.10
2019-03-15T01:26:03.260Z,17.40
2019-03-15T01:27:03.250Z,19.00
2019-03-15T01:28:03.246Z,14.90
2019-03-15T01:29:03.234Z,15.20
2019-03-15T01:30:03.223Z,15.40
2019-03-15T01:31:03.216Z,15.70
2019-03-15T01:32:03.204Z,15.30
2019-03-15T01:33:03.193Z,17.90
2019-03-15T01:34:03.181Z,13.90
2019-03-15T01:35:03.173Z,17.50
2019-03-15T01:36:03.167Z,15.20
2019-03-15T01:37:03.160Z,13.60
2019-03-15T01:38:03.152Z,15.70
2019-03-15T01:39:03.142Z,13.80
2019-03-15T01:40:03.127Z,13.20
2019-03-15T01:41:04.203Z,20.00
2019-03-15T01:42:03.112Z,18.30
2019-03-15T01:43:03.106Z,19.60
2019-03-15T01:44:03.622Z,17.60
2019-03-15T01:45:03.081Z,16.30
2019-03-15T01:46:03.068Z,13.90
2019-03-15T01:47:03.059Z,11.80
2019-03-15T01:48:03.162Z,14.50
2019-03-15T01:49:03.044Z,15.50
2019-03-15T01:50:03.034Z,12.10
2019-03-15T01:51:03.027Z,15.50
2019-03-15T01:52:03.012Z,14.30
2019-03-15T01:53:03.002Z,17.60
2019-03-15T01:54:02.996Z,15.70
2019-03-15T01:55:02.988Z,18.60
2019-03-15T01:56:02.981Z,19.70
2019-03-15T01:57:02.973Z,15.30
2019-03-15T01:58:02.957Z,16.30
2019-03-15T01:59:02.952Z,16.10
2019-03-15T02:00:02.942Z,20.20
2019-03-15T02:01:02.932Z,17.10
2019-03-15T02:02:02.923Z,15.80
2019-03-15T02:03:02.914Z,13.90
2019-03-15T02:04:02.895Z,12.30
2019-03-15T02:05:02.889Z,16.00
2019-03-15T02:06:02.885Z,14.80
2019-03-15T02:07:02.865Z,12.70
2019-03-15T02:08:02.864Z,13.10
2019-03-15T02:09:02.852Z,15.70
2019-03-15T02:10:02.843Z,14.60
2019-03-15T02:11:03.618Z,14.60
2019-03-15T02:12:02.824Z,23.70
2019-03-15T02:13:02.810Z,13.80
2019-03-15T02:14:02.805Z,11.40
2019-03-15T02:15:02.803Z,15.30
2019-03-15T02:16:02.780Z,14.30
2019-03-15T02:17:02.770Z,14.00
2019-03-15T02:18:02.758Z,14.20
2019-03-15T02:19:02.750Z,15.70
2019-03-15T02:20:02.745Z,14.30
2019-03-15T02:21:02.732Z,8.60
2019-03-15T02:22:02.724Z,16.70
2019-03-15T02:23:02.717Z,18.80
2019-03-15T02:24:02.702Z,12.60
2019-03-15T02:25:02.690Z,14.10
2019-03-15T02:26:02.679Z,15.70
2019-03-15T02:27:02.670Z,13.00
2019-03-15T02:28:02.662Z,16.20
2019-03-15T02:29:02.654Z,15.50
2019-03-15T02:30:02.647Z,13.80
2019-03-15T02:31:02.629Z,15.40
2019-03-15T02:32:02.628Z,15.50
2019-03-15T02:33:02.629Z,17.10
2019-03-15T02:34:02.608Z,14.10
2019-03-15T02:35:02.598Z,13.10
2019-03-15T02:36:02.597Z,16.70
2019-03-15T02:37:02.577Z,16.70
2019-03-15T02:38:02.571Z,15.70
2019-03-15T02:39:02.553Z,13.10
2019-03-15T02:40:02.548Z,10.40
2019-03-15T02:41:02.537Z,15.10
2019-03-15T02:42:02.525Z,12.70
2019-03-15T02:43:02.516Z,11.60
2019-03-15T02:44:02.501Z,23.60
2019-03-15T02:45:02.490Z,13.30
2019-03-15T02:46:02.487Z,13.20
2019-03-15T02:47:02.476Z,13.40
2019-03-15T02:48:02.486Z,13.00
2019-03-15T02:49:02.452Z,13.80
2019-03-15T02:50:02.454Z,12.30
2019-03-15T02:51:02.434Z,17.00
2019-03-15T02:52:02.431Z,12.20
2019-03-15T02:53:02.423Z,11.20
2019-03-15T02:54:02.419Z,17.20
2019-03-15T02:55:02.417Z,13.10
2019-03-15T02:56:02.388Z,13.90
2019-03-15T02:57:02.377Z,12.90
2019-03-15T02:58:02.363Z,11.20
2019-03-15T02:59:02.353Z,15.50
2019-03-15T03:00:02.351Z,15.20
2019-03-15T03:01:02.338Z,10.10
2019-03-15T03:02:02.336Z,9.80
2019-03-15T03:03:02.314Z,13.00
2019-03-15T03:04:02.310Z,12.20
2019-03-15T03:05:02.300Z,13.90
2019-03-15T03:06:02.412Z,9.80
2019-03-15T03:07:02.283Z,13.40
2019-03-15T03:08:02.286Z,7.80
2019-03-15T03:09:02.261Z,12.30
2019-03-15T03:10:02.565Z,15.50
2019-03-15T03:11:02.239Z,12.00
2019-03-15T03:12:02.237Z,10.20
2019-03-15T03:13:02.224Z,12.30
2019-03-15T03:14:02.259Z,12.60
2019-03-15T03:15:02.208Z,10.10
2019-03-15T03:16:02.191Z,11.10
2019-03-15T03:17:02.181Z,12.50
2019-03-15T03:18:02.175Z,12.80
2019-03-15T03:19:02.164Z,14.00
2019-03-15T03:20:02.151Z,14.10
2019-03-15T03:21:02.329Z,17.00
2019-03-15T03:22:02.140Z,12.10
2019-03-15T03:23:02.325Z,13.20
2019-03-15T03:24:02.122Z,12.40
2019-03-15T03:25:02.130Z,10.80
2019-03-15T03:26:02.212Z,11.60
2019-03-15T03:27:02.088Z,15.40
2019-03-15T03:28:02.092Z,15.10
2019-03-15T03:29:02.069Z,13.90
2019-03-15T03:30:02.064Z,14.80
2019-03-15T03:31:02.059Z,12.80
2019-03-15T03:32:02.041Z,12.00
2019-03-15T03:33:02.036Z,12.10
2019-03-15T03:34:02.026Z,10.40
2019-03-15T03:35:02.055Z,11.10
2019-03-15T03:36:02.014Z,14.20
2019-03-15T03:37:01.992Z,14.80
2019-03-15T03:38:01.979Z,12.30
2019-03-15T03:39:01.970Z,12.50
2019-03-15T03:40:02.609Z,12.50
2019-03-15T03:41:01.975Z,12.20
2019-03-15T03:42:01.946Z,11.90
2019-03-15T03:43:01.939Z,13.10
2019-03-15T03:44:01.923Z,12.10
2019-03-15T03:45:01.913Z,14.10
2019-03-15T03:46:01.907Z,11.60
2019-03-15T03:47:01.897Z,15.70
2019-03-15T03:48:01.893Z,10.20
2019-03-15T03:49:02.070Z,10.40
2019-03-15T03:50:01.869Z,15.00
2019-03-15T03:51:01.860Z,11.20
2019-03-15T03:52:02.677Z,11.50
2019-03-15T03:53:01.843Z,10.70
2019-03-15T03:54:01.837Z,8.50
2019-03-15T03:55:01.826Z,13.70
2019-03-15T03:56:01.810Z,11.80
2019-03-15T03:57:01.798Z,15.80
2019-03-15T03:58:02.357Z,15.70
2019-03-15T03:59:01.779Z,12.50
2019-03-15T04:00:01.777Z,14.70
2019-03-15T04:01:01.769Z,20.10
2019-03-15T04:02:01.759Z,9.90
2019-03-15T04:03:01.749Z,12.80
2019-03-15T04:04:01.736Z,9.70
2019-03-15T04:05:01.725Z,8.30
2019-03-15T04:06:01.736Z,13.60
2019-03-15T04:07:01.712Z,13.60
2019-03-15T04:08:01.698Z,10.00
2019-03-15T04:09:01.688Z,13.40
2019-03-15T04:10:01.680Z,15.00
2019-03-15T04:11:01.666Z,10.20
2019-03-15T04:12:01.671Z,13.70
2019-03-15T04:13:01.654Z,10.20
2019-03-15T04:14:01.641Z,11.00
2019-03-15T04:15:01.637Z,13.10
2019-03-15T04:16:01.619Z,9.50
2019-03-15T04:17:01.608Z,10.20
2019-03-15T04:18:01.602Z,10.80
2019-03-15T04:19:01.625Z,11.80
2019-03-15T04:20:01.590Z,8.50
2019-03-15T04:21:01.577Z,8.50
2019-03-15T04:22:01.566Z,13.70
2019-03-15T04:23:01.556Z,11.40
2019-03-15T04:24:01.554Z,8.70
2019-03-15T04:25:01.583Z,12.50
2019-03-15T04:26:01.526Z,13.10
2019-03-15T04:27:01.519Z,11.50
2019-03-15T04:28:01.503Z,12.00
2019-03-15T04:29:01.495Z,10.90
2019-03-15T04:30:01.579Z,11.30
2019-03-15T04:31:01.478Z,12.40
2019-03-15T04:32:01.649Z,10.40
2019-03-15T04:33:01.463Z,11.30
2019-03-15T04:34:01.452Z,9.50
2019-03-15T04:35:01.447Z,11.90
2019-03-15T04:36:01.432Z,12.20
2019-03-15T04:37:01.419Z,12.50
2019-03-15T04:38:01.413Z,15.00
2019-03-15T04:39:01.408Z,13.30
2019-03-15T04:40:01.392Z,8.70
2019-03-15T04:41:01.379Z,10.20
2019-03-15T04:42:01.372Z,12.10
2019-03-15T04:43:01.366Z,12.00
2019-03-15T04:44:01.358Z,9.70
2019-03-15T04:45:01.350Z,14.00
2019-03-15T04:46:01.340Z,10.70
2019-03-15T04:47:01.331Z,10.50
2019-03-15T04:48:01.317Z,13.70
2019-03-15T04:49:01.306Z,12.60
2019-03-15T04:50:01.295Z,14.20
2019-03-15T04:51:01.284Z,9.30
2019-03-15T04:52:01.281Z,13.20
2019-03-15T04:53:01.271Z,9.80
2019-03-15T04:54:01.257Z,13.00
2019-03-15T04:55:01.447Z,12.30
2019-03-15T04:56:01.348Z,10.90
2019-03-15T04:57:01.233Z,14.50
2019-03-15T04:58:01.225Z,10.20
2019-03-15T04:59:01.219Z,12.80
2019-03-15T05:00:01.209Z,11.40
2019-03-15T05:01:01.193Z,12.80
2019-03-15T05:02:01.184Z,13.90
2019-03-15T05:03:01.175Z,15.40
2019-03-15T05:04:01.168Z,14.10
2019-03-15T05:05:01.208Z,12.50
2019-03-15T05:06:03.696Z,8.90
2019-03-15T05:07:01.138Z,12.50
2019-03-15T05:08:01.128Z,11.50
2019-03-15T05:09:01.114Z,10.80
2019-03-15T05:10:01.109Z,11.40
2019-03-15T05:11:01.114Z,13.50
2019-03-15T05:12:01.085Z,13.50
2019-03-15T05:13:01.078Z,13.70
2019-03-15T05:14:01.071Z,11.20
2019-03-15T05:15:01.067Z,14.20
2019-03-15T05:16:01.060Z,12.30
2019-03-15T05:17:01.045Z,11.70
2019-03-15T05:18:01.038Z,12.90
2019-03-15T05:19:01.026Z,12.20
2019-03-15T05:20:01.014Z,12.60
2019-03-15T05:21:01.003Z,12.70
2019-03-15T05:22:00.992Z,10.90
2019-03-15T05:23:00.982Z,12.30
2019-03-15T05:24:00.977Z,12.70
2019-03-15T05:25:00.968Z,15.10
2019-03-15T05:26:00.953Z,14.30
2019-03-15T05:27:00.943Z,12.30
2019-03-15T05:28:00.940Z,17.60
2019-03-15T05:29:00.929Z,16.40
2019-03-15T05:30:00.922Z,12.90
2019-03-15T05:31:00.915Z,16.70
2019-03-15T05:32:00.900Z,16.10
2019-03-15T05:33:00.890Z,17.00
2019-03-15T05:34:00.877Z,14.70
2019-03-15T05:35:00.869Z,11.90
2019-03-15T05:36:00.865Z,21.30
2019-03-15T05:37:00.854Z,14.50
2019-03-15T05:38:00.847Z,17.00
2019-03-15T05:39:00.836Z,12.90
2019-03-15T05:40:00.847Z,18.70
2019-03-15T05:41:00.813Z,15.30
2019-03-15T05:42:00.808Z,14.20
2019-03-15T05:43:00.808Z,17.40
2019-03-15T05:44:00.785Z,15.60
2019-03-15T05:45:00.777Z,16.60
2019-03-15T05:46:00.764Z,12.50
2019-03-15T05:47:00.753Z,20.80
2019-03-15T05:48:00.751Z,20.50
2019-03-15T05:49:00.739Z,20.70
2019-03-15T05:50:00.731Z,15.20
2019-03-15T05:51:00.721Z,18.40
2019-03-15T05:52:00.709Z,18.90
2019-03-15T05:53:00.696Z,16.50
2019-03-15T05:54:00.691Z,19.20
2019-03-15T05:55:00.681Z,18.60
2019-03-15T05:56:00.700Z,20.70
2019-03-15T05:57:00.712Z,15.30
2019-03-15T05:58:00.653Z,19.90
2019-03-15T05:59:00.643Z,18.20
2019-03-15T06:00:00.639Z,20.60
2019-03-15T06:01:00.627Z,18.70
2019-03-15T06:02:00.616Z,16.30
2019-03-15T06:03:00.608Z,21.70
2019-03-15T06:04:00.593Z,17.20
2019-03-15T06:05:00.585Z,20.70
2019-03-15T06:06:00.574Z,18.80
2019-03-15T06:07:00.565Z,19.60
2019-03-15T06:08:00.562Z,20.30
2019-03-15T06:09:00.550Z,15.40
2019-03-15T06:10:00.542Z,20.70
2019-03-15T06:11:00.536Z,20.40
2019-03-15T06:12:00.520Z,20.90
2019-03-15T06:13:00.512Z,17.40
2019-03-15T06:14:00.508Z,13.90
2019-03-15T06:15:00.496Z,18.00
2019-03-15T06:16:00.483Z,21.60
2019-03-15T06:17:00.496Z,20.00
2019-03-15T06:18:00.460Z,16.10
2019-03-15T06:19:00.451Z,14.00
2019-03-15T06:20:00.446Z,18.60
2019-03-15T06:21:00.437Z,23.30
2019-03-15T06:22:00.428Z,15.70
2019-03-15T06:23:00.423Z,19.10
2019-03-15T06:24:00.404Z,15.80
2019-03-15T06:25:00.402Z,14.80
2019-03-15T06:26:00.389Z,17.40
2019-03-15T06:27:00.379Z,19.50
2019-03-15T06:28:00.378Z,19.50
2019-03-15T06:29:01.752Z,20.00
2019-03-15T06:30:00.527Z,16.20
2019-03-15T06:31:00.342Z,25.30
2019-03-15T06:32:00.336Z,17.40
2019-03-15T06:33:00.331Z,22.70
2019-03-15T06:34:00.315Z,23.70
2019-03-15T06:35:00.455Z,20.70
2019-03-15T06:36:00.291Z,20.70
2019-03-15T06:37:00.281Z,19.00
2019-03-15T06:38:00.275Z,18.70
2019-03-15T06:39:00.267Z,16.20
2019-03-15T06:40:00.398Z,14.40
2019-03-15T06:41:00.409Z,18.40
2019-03-15T06:42:00.240Z,19.00
2019-03-15T06:43:00.230Z,14.30
2019-03-15T06:44:00.227Z,16.10
2019-03-15T06:45:00.426Z,15.80
2019-03-15T06:46:00.202Z,18.80
2019-03-15T06:47:00.194Z,17.40
2019-03-15T06:48:00.893Z,13.10
2019-03-15T06:49:00.175Z,17.90
2019-03-15T06:50:00.317Z,18.20
2019-03-15T06:51:00.153Z,18.30
2019-03-15T06:52:00.152Z,19.10
2019-03-15T06:53:00.139Z,16.10
2019-03-15T06:54:10.790Z,18.10
2019-03-15T06:55:00.458Z,22.50
2019-03-15T06:56:00.106Z,20.70
2019-03-15T06:57:00.097Z,22.60
2019-03-15T06:58:00.084Z,18.50
2019-03-15T06:59:00.076Z,18.90
2019-03-15T07:00:00.097Z,21.80
2019-03-15T07:01:00.061Z,22.20
2019-03-15T07:02:00.049Z,28.70
2019-03-15T07:03:00.037Z,22.50
2019-03-15T07:04:00.035Z,25.10
2019-03-15T07:05:00.023Z,18.10
2019-03-15T07:06:00.017Z,22.20
2019-03-15T07:07:00.008Z,18.50
2019-03-15T07:07:59.995Z,15.90
2019-03-15T07:08:59.984Z,16.60
2019-03-15T07:09:59.997Z,26.60
2019-03-15T07:10:59.968Z,20.50
2019-03-15T07:12:09.178Z,18.20
2019-03-15T07:12:59.951Z,18.90
2019-03-15T07:13:59.938Z,22.80
2019-03-15T07:14:59.931Z,18.40
2019-03-15T07:15:59.917Z,20.90
2019-03-15T07:16:59.910Z,15.10
2019-03-15T07:17:59.901Z,18.50
2019-03-15T07:18:59.892Z,21.70
2019-03-15T07:19:59.894Z,22.80
2019-03-15T07:20:59.873Z,20.90
2019-03-15T07:21:59.860Z,17.70
2019-03-15T07:22:59.856Z,18.70
2019-03-15T07:23:59.848Z,15.70
2019-03-15T07:24:59.847Z,17.60
2019-03-15T07:25:59.829Z,16.70
2019-03-15T07:27:12.110Z,20.40
2019-03-15T07:27:59.806Z,15.30
2019-03-15T07:28:59.796Z,21.00
2019-03-15T07:30:00.176Z,20.40
2019-03-15T07:30:59.773Z,17.90
2019-03-15T07:31:59.776Z,16.90
2019-03-15T07:32:59.757Z,17.80
2019-03-15T07:33:59.747Z,19.40
2019-03-15T07:34:59.739Z,16.00
2019-03-15T07:35:59.847Z,20.50
2019-03-15T07:36:59.721Z,19.90
2019-03-15T07:37:59.717Z,19.00
2019-03-15T07:38:59.705Z,19.10
2019-03-15T07:39:59.692Z,16.70
2019-03-15T07:40:59.681Z,21.40
2019-03-15T07:41:59.672Z,16.50
2019-03-15T07:43:03.414Z,16.60
2019-03-15T07:43:59.659Z,15.30
2019-03-15T07:44:59.649Z,20.10
2019-03-15T07:45:59.638Z,20.20
2019-03-15T07:46:59.634Z,17.30
2019-03-15T07:47:59.613Z,23.60
2019-03-15T07:48:59.601Z,21.90
2019-03-15T07:49:59.601Z,14.90
2019-03-15T07:50:59.589Z,22.60
2019-03-15T07:51:59.574Z,18.70
2019-03-15T07:52:59.567Z,17.40
2019-03-15T07:53:59.557Z,16.90
2019-03-15T07:54:59.548Z,19.30
2019-03-15T07:55:59.545Z,20.20
2019-03-15T07:56:59.532Z,16.20
2019-03-15T07:57:59.525Z,19.70
2019-03-15T07:58:59.514Z,17.50
2019-03-15T07:59:59.502Z,17.80
2019-03-15T08:00:59.489Z,17.50
2019-03-15T08:01:59.476Z,19.70
2019-03-15T08:02:59.469Z,18.30
2019-03-15T08:03:59.472Z,17.90
2019-03-15T08:04:59.454Z,17.10
2019-03-15T08:05:59.444Z,16.10
2019-03-15T08:06:59.430Z,16.00
2019-03-15T08:07:59.451Z,22.70
2019-03-15T08:08:59.418Z,15.30
2019-03-15T08:09:59.407Z,15.40
2019-03-15T08:10:59.398Z,16.70
2019-03-15T08:11:59.383Z,13.70
2019-03-15T08:12:59.375Z,18.60
2019-03-15T08:13:59.364Z,18.00
2019-03-15T08:14:59.354Z,21.10
2019-03-15T08:15:59.349Z,19.50
2019-03-15T08:16:59.338Z,15.00
2019-03-15T08:17:59.327Z,20.70
2019-03-15T08:18:59.319Z,15.80
2019-03-15T08:19:59.303Z,17.90
2019-03-15T08:20:59.291Z,18.60
2019-03-15T08:21:59.288Z,15.90
2019-03-15T08:22:59.278Z,20.30
2019-03-15T08:23:59.267Z,13.60
2019-03-15T08:24:59.253Z,16.70
2019-03-15T08:25:59.248Z,16.50
2019-03-15T08:26:59.238Z,17.80
2019-03-15T08:27:59.232Z,13.70
2019-03-15T08:28:59.222Z,18.00
2019-03-15T08:29:59.212Z,16.90
2019-03-15T08:30:59.203Z,15.70
2019-03-15T08:31:59.189Z,16.60
2019-03-15T08:33:09.462Z,11.20
2019-03-15T08:33:59.168Z,19.40
2019-03-15T08:34:59.160Z,16.70
2019-03-15T08:35:59.154Z,16.90
2019-03-15T08:36:59.142Z,19.60
2019-03-15T08:37:59.126Z,16.30
2019-03-15T08:38:59.119Z,17.60
2019-03-15T08:39:59.112Z,10.90
2019-03-15T08:40:59.104Z,13.70
2019-03-15T08:41:59.096Z,17.00
2019-03-15T08:42:59.092Z,13.70
2019-03-15T08:43:59.074Z,16.00
2019-03-15T08:44:59.084Z,13.40
2019-03-15T08:45:59.050Z,12.40
2019-03-15T08:46:59.041Z,15.30
2019-03-15T08:47:59.037Z,11.40
2019-03-15T08:48:59.026Z,11.10
2019-03-15T08:49:59.020Z,11.30
2019-03-15T08:50:59.010Z,12.10
2019-03-15T08:52:03.735Z,12.00
2019-03-15T08:52:58.986Z,17.00
2019-03-15T08:53:58.983Z,11.60
2019-03-15T08:55:05.156Z,12.30
2019-03-15T08:55:58.957Z,11.80
2019-03-15T08:56:58.950Z,13.60
2019-03-15T08:57:58.939Z,14.30
2019-03-15T08:58:58.926Z,14.90
2019-03-15T08:59:58.925Z,17.60
2019-03-15T09:00:58.915Z,11.60
2019-03-15T09:01:58.905Z,14.70
2019-03-15T09:02:58.896Z,13.00
2019-03-15T09:03:58.882Z,18.00
2019-03-15T09:04:58.870Z,15.40
2019-03-15T09:05:58.866Z,15.20
2019-03-15T09:06:58.856Z,13.40
2019-03-15T09:07:58.850Z,17.00
2019-03-15T09:08:58.842Z,11.90
2019-03-15T09:09:58.827Z,16.30
2019-03-15T09:10:58.818Z,16.80
2019-03-15T09:11:58.814Z,16.60
2019-03-15T09:12:58.804Z,16.00
2019-03-15T09:13:58.792Z,15.00
2019-03-15T09:14:58.783Z,15.00
2019-03-15T09:15:58.770Z,12.30
2019-03-15T09:16:58.760Z,18.80
2019-03-15T09:17:58.751Z,11.20
2019-03-15T09:18:58.741Z,13.80
2019-03-15T09:19:58.738Z,13.80
2019-03-15T09:20:58.728Z,11.70
2019-03-15T09:22:00.627Z,13.70
2019-03-15T09:22:58.715Z,11.50
2019-03-15T09:23:58.699Z,11.00
2019-03-15T09:24:58.691Z,14.20
2019-03-15T09:25:58.687Z,9.10
2019-03-15T09:26:58.681Z,10.00
2019-03-15T09:27:58.665Z,10.60
2019-03-15T09:28:58.654Z,9.70
2019-03-15T09:29:58.643Z,8.20
2019-03-15T09:30:58.636Z,9.70
2019-03-15T09:32:06.253Z,10.30
2019-03-15T09:32:58.626Z,6.70
2019-03-15T09:33:58.613Z,7.00
2019-03-15T09:34:58.606Z,7.60
2019-03-15T09:35:58.591Z,7.60
2019-03-15T09:36:58.582Z,9.80
2019-03-15T09:37:58.577Z,6.30
2019-03-15T09:38:58.568Z,8.50
2019-03-15T09:39:58.566Z,7.90
2019-03-15T09:40:58.556Z,6.40
2019-03-15T09:41:58.544Z,5.50
2019-03-15T09:42:59.877Z,8.40
2019-03-15T09:43:58.531Z,5.80
2019-03-15T09:44:58.524Z,6.00
2019-03-15T09:45:58.514Z,7.00
2019-03-15T09:46:58.504Z,6.00
2019-03-15T09:47:58.493Z,6.70
2019-03-15T09:48:59.915Z,6.10
2019-03-15T09:49:58.477Z,7.10
2019-03-15T09:50:58.468Z,5.10
2019-03-15T09:51:58.465Z,5.90
2019-03-15T09:52:58.457Z,5.50
2019-03-15T09:53:58.446Z,6.90
2019-03-15T09:54:58.440Z,5.20
2019-03-15T09:55:58.429Z,6.00
2019-03-15T09:56:58.421Z,6.00
2019-03-15T09:57:58.416Z,5.70
2019-03-15T09:58:58.407Z,7.00
2019-03-15T09:59:58.395Z,6.30
2019-03-15T10:00:58.743Z,5.50
2019-03-15T10:01:58.381Z,9.00
2019-03-15T10:02:58.372Z,5.10
2019-03-15T10:03:58.369Z,6.10
2019-03-15T10:05:10.214Z,8.60
2019-03-15T10:05:58.353Z,6.20
2019-03-15T10:06:58.347Z,7.70
2019-03-15T10:07:58.333Z,6.00
2019-03-15T10:08:58.325Z,9.90
2019-03-15T10:09:58.313Z,8.10
2019-03-15T10:10:58.309Z,6.90
2019-03-15T10:11:58.304Z,7.30
2019-03-15T10:13:05.997Z,6.60
2019-03-15T10:13:58.282Z,8.00
2019-03-15T10:14:58.281Z,7.50
2019-03-15T10:15:58.273Z,9.00
2019-03-15T10:16:58.268Z,7.90
2019-03-15T10:17:58.260Z,8.30
2019-03-15T10:18:58.254Z,7.80
2019-03-15T10:19:58.250Z,7.90
2019-03-15T10:20:58.232Z,9.10
2019-03-15T10:21:58.223Z,9.80
2019-03-15T10:23:05.793Z,9.70
2019-03-15T10:23:58.213Z,9.40
2019-03-15T10:24:58.205Z,8.60
2019-03-15T10:25:58.194Z,8.90
2019-03-15T10:26:58.187Z,7.60
2019-03-15T10:27:58.174Z,9.60
2019-03-15T10:28:58.166Z,11.40
2019-03-15T10:29:58.194Z,10.50
2019-03-15T10:30:58.156Z,9.80
2019-03-15T10:31:58.143Z,10.50
2019-03-15T10:32:58.135Z,9.70
2019-03-15T10:33:58.131Z,9.60
2019-03-15T10:34:58.123Z,11.20
2019-03-15T10:35:58.120Z,12.50
2019-03-15T10:36:58.120Z,8.10
2019-03-15T10:37:58.105Z,10.10
2019-03-15T10:38:58.099Z,12.60
2019-03-15T10:39:58.086Z,10.50
2019-03-15T10:41:01.112Z,11.90
2019-03-15T10:41:58.066Z,14.10
2019-03-15T10:42:58.060Z,11.80
2019-03-15T10:43:58.056Z,11.90
2019-03-15T10:44:58.070Z,12.30
2019-03-15T10:45:58.037Z,10.70
2019-03-15T10:46:58.028Z,10.40
2019-03-15T10:47:58.026Z,14.40
2019-03-15T10:48:58.018Z,16.30
2019-03-15T10:49:58.017Z,17.70
2019-03-15T10:50:58.007Z,14.70
2019-03-15T10:51:58.040Z,15.50
2019-03-15T10:52:57.989Z,13.80
2019-03-15T10:53:57.976Z,14.10
2019-03-15T10:54:57.971Z,16.60
2019-03-15T10:56:00.447Z,14.70
2019-03-15T10:56:57.957Z,17.00
2019-03-15T10:57:57.951Z,16.20
2019-03-15T10:58:57.945Z,15.30
2019-03-15T10:59:57.932Z,16.00
2019-03-15T11:00:57.929Z,24.50
2019-03-15T11:01:57.922Z,22.70
2019-03-15T11:02:57.916Z,20.10
2019-03-15T11:03:57.905Z,18.90
2019-03-15T11:04:57.895Z,16.10
2019-03-15T11:05:57.883Z,23.30
2019-03-15T11:06:57.879Z,17.10
2019-03-15T11:07:57.875Z,17.60
2019-03-15T11:08:57.869Z,19.30
2019-03-15T11:09:57.862Z,21.50
2019-03-15T11:10:57.853Z,18.70
2019-03-15T11:11:57.841Z,18.90
2019-03-15T11:12:57.835Z,18.20
2019-03-15T11:13:57.830Z,17.30
2019-03-15T11:14:57.824Z,19.10
2019-03-15T11:15:57.818Z,21.20
2019-03-15T11:16:57.813Z,20.80
2019-03-15T11:17:57.796Z,23.30
2019-03-15T11:18:57.790Z,24.60
2019-03-15T11:19:57.795Z,22.40
2019-03-15T11:20:57.781Z,29.40
2019-03-15T11:21:57.770Z,24.10
2019-03-15T11:22:57.762Z,22.80
2019-03-15T11:23:57.751Z,23.80
2019-03-15T11:24:57.741Z,21.80
2019-03-15T11:25:57.735Z,22.00
2019-03-15T11:26:57.728Z,25.70
2019-03-15T11:27:57.726Z,26.30
2019-03-15T11:28:57.719Z,25.70
2019-03-15T11:29:57.804Z,29.20
2019-03-15T11:31:00.634Z,22.50
2019-03-15T11:31:57.695Z,22.70
2019-03-15T11:32:57.686Z,26.00
2019-03-15T11:33:57.684Z,26.70
2019-03-15T11:34:57.676Z,31.40
2019-03-15T11:35:57.664Z,24.10
2019-03-15T11:36:58.765Z,26.00
2019-03-15T11:37:57.648Z,29.50
2019-03-15T11:38:57.640Z,22.90
2019-03-15T11:39:57.638Z,22.60
2019-03-15T11:40:57.630Z,23.60
2019-03-15T11:41:57.624Z,22.20
2019-03-15T11:42:57.619Z,28.60
2019-03-15T11:43:57.639Z,24.70
2019-03-15T11:44:57.596Z,24.80
2019-03-15T11:45:57.593Z,24.20
2019-03-15T11:46:57.588Z,25.60
2019-03-15T11:48:04.636Z,31.70
2019-03-15T11:48:57.576Z,29.40
2019-03-15T11:49:57.565Z,24.90
2019-03-15T11:50:57.558Z,20.80
2019-03-15T11:51:57.556Z,19.60
2019-03-15T11:52:57.556Z,28.60
2019-03-15T11:53:57.538Z,22.90
2019-03-15T11:54:57.534Z,22.20
2019-03-15T11:55:57.521Z,23.00
2019-03-15T11:56:57.515Z,21.00
2019-03-15T11:57:57.509Z,27.50
2019-03-15T11:58:57.502Z,25.80
2019-03-15T11:59:57.501Z,18.20
2019-03-15T12:00:57.492Z,21.30
2019-03-15T12:02:03.953Z,24.80
2019-03-15T12:02:57.478Z,21.90
2019-03-15T12:03:57.468Z,22.40
2019-03-15T12:04:57.458Z,23.60
2019-03-15T12:05:57.457Z,23.40
2019-03-15T12:06:57.450Z,17.20
2019-03-15T12:07:57.440Z,18.40
2019-03-15T12:08:57.435Z,21.60
2019-03-15T12:09:57.432Z,16.40
2019-03-15T12:10:57.422Z,18.60
2019-03-15T12:11:57.422Z,20.50
2019-03-15T12:12:57.414Z,19.80
2019-03-15T12:13:57.405Z,20.00
2019-03-15T12:14:57.399Z,18.60
2019-03-15T12:15:57.388Z,18.30
2019-03-15T12:16:57.380Z,16.90
2019-03-15T12:17:57.371Z,23.20
2019-03-15T12:18:57.364Z,15.60
2019-03-15T12:19:57.363Z,18.50
2019-03-15T12:20:57.355Z,16.90
2019-03-15T12:22:06.160Z,18.00
2019-03-15T12:22:57.339Z,15.10
2019-03-15T12:23:57.335Z,17.20
2019-03-15T12:24:57.329Z,20.10
2019-03-15T12:25:57.325Z,16.20
2019-03-15T12:26:57.318Z,17.70
2019-03-15T12:27:57.308Z,16.20
2019-03-15T12:28:57.302Z,14.80
2019-03-15T12:29:57.296Z,20.60
2019-03-15T12:30:57.288Z,14.10
2019-03-15T12:31:57.286Z,11.40
2019-03-15T12:32:57.280Z,15.10
2019-03-15T12:33:57.272Z,17.70
2019-03-15T12:34:57.265Z,13.30
2019-03-15T12:35:57.256Z,16.50
2019-03-15T12:36:57.246Z,12.90
2019-03-15T12:37:57.246Z,13.20
2019-03-15T12:38:58.545Z,11.90
2019-03-15T12:39:57.230Z,13.20
2019-03-15T12:40:57.222Z,12.50
2019-03-15T12:41:57.221Z,17.90
2019-03-15T12:42:57.214Z,14.80
2019-03-15T12:43:57.212Z,13.00
2019-03-15T12:44:57.205Z,14.90
2019-03-15T12:45:57.201Z,11.60
2019-03-15T12:46:57.195Z,12.30
2019-03-15T12:47:57.186Z,12.60
2019-03-15T12:48:57.179Z,14.10
2019-03-15T12:49:57.171Z,13.30
2019-03-15T12:50:57.167Z,11.90
2019-03-15T12:51:57.164Z,18.10
2019-03-15T12:52:57.160Z,13.40
2019-03-15T12:53:57.150Z,14.20
2019-03-15T12:54:57.143Z,11.50